Latest Coastal Weather Observations for Browse Island

IDD60701

Issued at 9:01 pm CST Saturday 18 April 2015 (issued every 10 minutes, with the page automatically refreshed every 10 minutes)

About coastal observations | Map of coastal stations | Coastal observations for NT | Marine services | Other Formats
Station Details ID: 200784 Name: BROWSE ISLAND Lat: -14.11 Lon: 123.55 Height: 3.7 m
Data from the previous 72 hours. | See also: Recent months for locations in Northern Territory
Date/Time
CST
Temp

°C
Wind Pressure Rain
since 9am
mm
Weather Cloud Vis
km
Sea
Height
m
Swell
Dir
 
Speed
knots
Gust
knots
hPa Trend Height
m
Period
s
Dir
18/09:00pm 29.3 E 8 10 1011.2 - - - - - - - - -
18/08:30pm 29.2 ESE 8 9 1010.6 - - - - - - - - -
18/08:00pm 29.2 SE 8 9 1010.3 - - - - - - - - -
18/07:30pm 29.2 ESE 7 9 1010.1 - - - - - - - - -
18/07:00pm 29.2 SE 7 9 1009.7 - - - - - - - - -
18/06:30pm 29.6 ESE 7 9 1009.5 - - - - - - - - -
18/06:00pm 29.6 ESE 7 9 1009.3 - - - - - - - - -
18/05:30pm 29.7 ESE 6 8 1009.3 - - - - - - - - -
18/05:00pm 29.9 SE 7 9 1009.3 - - - - - - - - -
18/04:30pm 30.3 SE 8 9 1009.2 - - - - - - - - -
18/04:00pm 30.6 ESE 7 8 1009.2 - - - - - - - - -
18/03:30pm 30.9 ESE 7 9 1009.4 - - - - - - - - -
18/03:00pm 30.4 ESE 8 9 1009.6 - - - - - - - - -
18/02:30pm 31.0 ESE 7 9 1009.8 - - - - - - - - -
18/02:00pm 31.1 ESE 7 9 1010.3 - - - - - - - - -
18/01:30pm 30.7 E 7 8 1010.5 - - - - - - - - -
18/01:00pm 30.3 ESE 7 8 1010.9 - - - - - - - - -
18/12:30pm 30.6 ESE 7 9 1011.2 - - - - - - - - -
18/12:00pm 30.2 ESE 7 9 1011.5 - - - - - - - - -
18/11:30am 29.8 ESE 8 10 1011.8 - - - - - - - - -
18/11:00am 29.6 ESE 9 10 1012.1 - - - - - - - - -
18/10:30am 29.5 ESE 9 11 1012.1 - - - - - - - - -
18/10:00am 29.9 ESE 8 10 1012.0 - - - - - - - - -
18/09:30am 30.0 ESE 7 8 1011.7 - - - - - - - - -
18/09:00am 29.6 ESE 8 11 1011.4 - - - - - - - - -
18/08:30am 29.3 ESE 9 11 1011.4 - - - - - - - - -
18/08:00am 29.2 ESE 9 11 1011.2 - - - - - - - - -
18/07:30am 29.1 ESE 8 11 1011.0 - - - - - - - - -
18/07:00am 28.8 ESE 8 11 1010.8 - - - - - - - - -
18/06:30am 28.9 ESE 8 9 1010.6 - - - - - - - - -
18/06:00am 29.0 ESE 6 7 1010.2 - - - - - - - - -
18/05:30am 29.0 ESE 6 7 1010.1 - - - - - - - - -
18/05:00am 29.2 SE 6 7 1010.2 - - - - - - - - -
18/04:30am 29.2 ESE 4 6 1010.1 - - - - - - - - -
18/04:00am 29.2 E 4 5 1009.9 - - - - - - - - -
18/03:30am 29.2 NE 3 4 1010.0 - - - - - - - - -
18/03:00am 29.2 ENE 6 7 1010.3 - - - - - - - - -
18/02:30am 29.6 NE 5 5 1010.6 - - - - - - - - -
18/02:00am 29.5 NE 5 7 1010.9 - - - - - - - - -
18/01:30am 29.4 NNE 6 8 1011.2 - - - - - - - - -
18/01:00am 29.6 NNE 7 8 1011.5 - - - - - - - - -
18/12:30am 29.5 NNE 7 8 1011.6 - - - - - - - - -
18/12:00am 29.6 NNE 6 7 1011.9 - - - - - - - - -
 
Date/Time
CST
Temp

°C
Wind Pressure Rain
since 9am
mm
Weather Cloud Vis
km
Sea
Height
m
Swell
Dir
 
Speed
knots
Gust
knots
hPa Trend Height
m
Period
s
Dir
17/11:30pm 29.6 NNE 5 7 1012.2 - - - - - - - - -
17/11:00pm 29.6 NE 6 8 1012.2 - - - - - - - - -
17/10:30pm 29.4 NE 5 7 1012.2 - - - - - - - - -
17/10:00pm 29.6 NNE 7 8 1011.9 - - - - - - - - -
17/09:30pm 29.7 NNE 8 9 1011.5 - - - - - - - - -
17/09:00pm 29.7 NNE 7 8 1011.0 - - - - - - - - -
17/08:30pm 29.6 NNE 7 8 1010.4 - - - - - - - - -
17/08:00pm 29.6 NNE 7 9 1010.0 - - - - - - - - -
17/07:30pm 29.7 NNE 6 8 1010.0 - - - - - - - - -
17/07:00pm 29.7 NE 6 8 1009.7 - - - - - - - - -
17/06:30pm 29.9 NE 6 7 1009.6 - - - - - - - - -
17/06:00pm 30.3 ENE 5 6 1009.3 - - - - - - - - -
17/05:30pm 30.6 ENE 6 8 1009.3 - - - - - - - - -
17/05:00pm 31.0 E 6 8 1009.2 - - - - - - - - -
17/04:30pm 30.7 ESE 7 9 1009.3 - - - - - - - - -
17/04:00pm 30.8 ESE 7 9 1009.4 - - - - - - - - -
17/03:30pm 31.1 ESE 8 9 1009.6 - - - - - - - - -
17/03:00pm 31.6 ESE 7 9 1009.8 - - - - - - - - -
17/02:30pm 31.3 SE 6 7 1010.1 - - - - - - - - -
17/02:00pm 30.5 S 5 6 1010.3 - - - - - - - - -
17/01:30pm 30.9 SSE 5 6 1010.9 - - - - - - - - -
17/01:00pm 30.3 SE 6 7 1011.1 - - - - - - - - -
17/12:30pm 29.9 SE 7 8 1011.6 - - - - - - - - -
17/12:00pm 30.2 SE 7 9 1011.9 - - - - - - - - -
17/11:30am 29.9 SE 7 8 1012.4 - - - - - - - - -
17/11:00am 29.8 SE 7 8 1012.6 - - - - - - - - -
17/10:30am 29.7 ESE 8 10 1012.4 - - - - - - - - -
17/10:00am 29.8 ESE 7 8 1012.0 - - - - - - - - -
17/09:30am 28.8 SE 14 18 1012.3 - - - - - - - - -
17/09:00am 28.4 SE 16 20 1012.8 - - - - - - - - -
17/08:30am 28.4 SSE 15 17 1012.6 - - - - - - - - -
17/08:00am 28.3 SSE 19 23 1012.4 - - - - - - - - -
17/07:30am 28.4 SSE 20 25 1012.4 - - - - - - - - -
17/07:00am 29.5 SSE 16 19 1012.3 - - - - - - - - -
17/06:30am 29.0 SSE 10 12 1012.2 - - - - - - - - -
17/06:00am 29.1 SSE 7 8 1012.0 - - - - - - - - -
17/05:30am 29.0 SSE 5 6 1011.6 - - - - - - - - -
17/05:00am 28.9 SSE 3 4 1011.5 - - - - - - - - -
17/04:30am 28.8 SE 5 5 1011.6 - - - - - - - - -
17/04:00am 28.9 ESE 4 5 1011.7 - - - - - - - - -
17/03:30am 28.8 E 5 6 1011.8 - - - - - - - - -
17/03:00am 29.2 E 4 5 1012.2 - - - - - - - - -
17/02:30am 29.1 ESE 4 5 1012.5 - - - - - - - - -
17/02:00am 29.2 E 3 5 1013.1 - - - - - - - - -
17/01:30am 29.0 CALM 0 0 1013.4 - - - - - - - - -
17/01:00am 29.1 CALM 0 0 1013.7 - - - - - - - - -
17/12:30am 29.2 N 3 3 1013.7 - - - - - - - - -
17/12:00am 29.3 N 4 5 1013.9 - - - - - - - - -
 
Date/Time
CST
Temp

°C
Wind Pressure Rain
since 9am
mm
Weather Cloud Vis
km
Sea
Height
m
Swell
Dir
 
Speed
knots
Gust
knots
hPa Trend Height
m
Period
s
Dir
16/11:30pm 29.3 N 4 5 1014.1 - - - - - - - - -
16/11:00pm 29.7 N 4 5 1014.4 - - - - - - - - -
16/10:30pm 29.8 N 6 7 1014.2 - - - - - - - - -
16/10:00pm 29.9 NNE 5 6 1014.1 - - - - - - - - -
16/09:30pm 29.7 NNE 4 5 1014.0 - - - - - - - - -
16/09:00pm 29.9 N 3 4 1013.8 - - - - - - - - -
16/08:30pm 29.9 NE 3 4 1013.4 - - - - - - - - -
16/08:00pm 29.8 ENE 1 3 1013.0 - - - - - - - - -
16/07:30pm 29.8 E 3 3 1012.6 - - - - - - - - -
16/07:00pm 30.0 ESE 4 5 1012.0 - - - - - - - - -
16/06:30pm 30.3 SE 6 7 1011.7 - - - - - - - - -
16/06:00pm 30.2 ESE 6 7 1011.5 - - - - - - - - -
16/05:30pm 30.6 ESE 6 8 1011.5 - - - - - - - - -
16/05:00pm 30.8 ESE 7 8 1011.5 - - - - - - - - -
16/04:30pm 30.6 ESE 7 9 1011.5 - - - - - - - - -
16/04:00pm 31.2 ESE 9 11 1011.5 - - - - - - - - -
16/03:30pm 31.1 ESE 10 12 1011.4 - - - - - - - - -
16/03:00pm 30.9 ESE 9 11 1011.7 - - - - - - - - -
16/02:30pm 30.9 ESE 10 12 1012.0 - - - - - - - - -
16/02:00pm 30.8 ESE 10 12 1012.1 - - - - - - - - -
16/01:30pm 30.6 ESE 9 11 1012.5 - - - - - - - - -
16/01:00pm 30.8 ESE 9 11 1012.9 - - - - - - - - -
16/12:30pm 31.1 ESE 8 10 1013.4 - - - - - - - - -
16/12:00pm 31.3 SE 9 11 1014.0 - - - - - - - - -
16/11:30am 31.0 SE 9 11 1014.5 - - - - - - - - -
16/11:00am 30.4 SE 9 11 1014.8 - - - - - - - - -
16/10:30am 30.6 SE 10 13 1014.9 - - - - - - - - -
16/10:00am 30.1 SE 9 11 1014.8 - - - - - - - - -
16/09:30am 29.7 SE 8 10 1014.4 - - - - - - - - -
16/09:00am 29.4 SE 8 10 1014.1 - - - - - - - - -
16/08:30am 29.3 SE 8 10 1014.0 - - - - - - - - -
16/08:00am 29.3 SE 7 9 1014.0 - - - - - - - - -
16/07:30am 29.1 SE 6 7 1013.6 - - - - - - - - -
16/07:00am 29.0 SE 5 7 1013.2 - - - - - - - - -
16/06:30am 29.0 SSE 4 6 1013.1 - - - - - - - - -
16/06:00am 29.1 SE 5 6 1013.0 - - - - - - - - -
16/05:30am 29.2 ESE 3 4 1012.9 - - - - - - - - -
16/05:00am 29.2 SE 4 5 1013.0 - - - - - - - - -
16/04:30am 29.3 ESE 4 5 1013.0 - - - - - - - - -
16/04:00am 29.2 SE 4 5 1013.0 - - - - - - - - -
16/03:30am 29.4 ESE 4 5 1013.1 - - - - - - - - -
16/03:00am 29.3 E 4 5 1013.0 - - - - - - - - -
16/02:30am 29.4 E 5 6 1013.1 - - - - - - - - -
16/02:00am 29.3 E 3 5 1013.6 - - - - - - - - -
16/01:30am 29.5 ESE 4 5 1013.8 - - - - - - - - -
16/01:00am 29.5 SE 5 6 1014.0 - - - - - - - - -
16/12:30am 29.5 SE 5 6 1014.3 - - - - - - - - -
16/12:00am 29.5 SE 5 6 1014.5 - - - - - - - - -
 
Date/Time
CST
Temp

°C
Wind Pressure Rain
since 9am
mm
Weather Cloud Vis
km
Sea
Height
m
Swell
Dir
 
Speed
knots
Gust
knots
hPa Trend Height
m
Period
s
Dir
15/11:30pm 29.7 CALM 0 0 1014.4 - - - - - - - - -
15/11:00pm 29.7 CALM 0 0 1014.5 - - - - - - - - -

Other Formats:

Comma delimited format used in spreadsheet applications
http://www.bom.gov.au/fwo/IDD60701/IDD60701.94103.axf

JavaScript Object Notation format (JSON) in row-major order
http://www.bom.gov.au/fwo/IDD60701/IDD60701.94103.json